Time;durP1;ratioP1;P1;durP2;ratioP2;P2;SDS_P1;SDS_P2;PMS_P1;PMS_P2;Temp;Humidity;BMP_temperature;BMP_pressure;BME280_temperature;BME280_humidity;BME280_pressure;Samples;Min_cycle;Max_cycle;Signal;HPM_P1;HPM_P2
2021/11/04 00:00:23;;;;;;;15.10;9.80;;;;;;;10.51;100.00;99211.03;5117168;28;20058;-76
2021/11/04 00:02:53;;;;;;;17.00;10.25;;;;;;;10.53;100.00;99203.78;5117136;28;20480;-72
2021/11/04 00:05:23;;;;;;;17.45;10.98;;;;;;;10.51;100.00;99187.03;5117123;28;20097;-74
2021/11/04 00:07:52;;;;;;;17.98;10.40;;;;;;;10.51;100.00;99173.69;5117238;28;20063;-74
2021/11/04 00:10:22;;;;;;;18.45;10.23;;;;;;;10.57;100.00;99176.75;5117270;28;20084;-74
2021/11/04 00:12:50;;;;;;;16.42;9.88;;;;;;;10.53;100.00;99174.44;5117182;28;20043;-75
2021/11/04 00:15:19;;;;;;;17.75;10.32;;;;;;;10.43;100.00;99162.78;5117301;28;20043;-75
2021/11/04 00:17:48;;;;;;;16.90;10.45;;;;;;;10.43;100.00;99160.13;5098437;28;20557;-75
2021/11/04 00:20:18;;;;;;;17.40;10.30;;;;;;;10.54;100.00;99173.47;5116693;28;20047;-75
2021/11/04 00:22:48;;;;;;;16.70;10.25;;;;;;;10.40;100.00;99173.66;5116779;28;20050;-75
2021/11/04 00:25:19;;;;;;;16.40;9.80;;;;;;;10.41;100.00;99162.03;5117010;28;20039;-75
2021/11/04 00:27:50;;;;;;;19.25;9.85;;;;;;;10.24;100.00;99177.53;5116815;28;20469;-75
2021/11/04 00:30:19;;;;;;;17.85;10.32;;;;;;;10.17;100.00;99170.06;5116674;28;20051;-75
2021/11/04 00:32:49;;;;;;;17.35;9.95;;;;;;;10.14;100.00;99165.81;5116700;28;20538;-74
2021/11/04 00:35:18;;;;;;;19.25;9.98;;;;;;;10.23;100.00;99165.16;5116617;28;20449;-74
2021/11/04 00:37:49;;;;;;;17.52;10.35;;;;;;;10.28;100.00;99162.13;5116471;28;20042;-74
2021/11/04 00:40:22;;;;;;;17.05;9.93;;;;;;;10.34;100.00;99182.16;5116838;28;20036;-74
2021/11/04 00:42:51;;;;;;;17.38;9.82;;;;;;;10.05;100.00;99179.84;5116740;28;20073;-73
2021/11/04 00:45:21;;;;;;;19.48;10.25;;;;;;;9.91;100.00;99183.50;5116675;28;20400;-74
2021/11/04 00:47:50;;;;;;;15.63;10.27;;;;;;;9.85;100.00;99188.47;5116560;28;20053;-72
2021/11/04 00:50:22;;;;;;;20.77;10.15;;;;;;;9.81;100.00;99189.66;5116389;28;20063;-73
2021/11/04 00:52:52;;;;;;;19.90;10.30;;;;;;;9.92;100.00;99187.88;5116646;28;20035;-75
2021/11/04 00:55:20;;;;;;;20.13;10.30;;;;;;;9.94;100.00;99174.44;5116259;28;20488;-75
2021/11/04 00:57:49;;;;;;;16.25;9.90;;;;;;;10.06;100.00;99178.88;5116310;28;20073;-75
2021/11/04 01:00:19;;;;;;;16.27;9.43;;;;;;;10.03;100.00;99174.59;5116261;28;20503;-74
2021/11/04 01:02:47;;;;;;;21.90;9.85;;;;;;;10.11;100.00;99170.53;5114821;28;20039;-75
2021/11/04 01:05:16;;;;;;;14.88;9.07;;;;;;;9.92;100.00;99177.22;5116326;28;20069;-75
2021/11/04 01:07:45;;;;;;;15.90;10.27;;;;;;;9.92;100.00;99176.38;5115871;28;20097;-73
2021/11/04 01:10:15;;;;;;;17.02;10.20;;;;;;;9.78;100.00;99181.88;5116121;28;20043;-73
2021/11/04 01:12:43;;;;;;;16.92;9.85;;;;;;;9.75;100.00;99170.50;5115790;28;20032;-73
2021/11/04 01:15:12;;;;;;;17.52;10.68;;;;;;;9.82;100.00;99162.88;5115983;28;20042;-74
2021/11/04 01:17:41;;;;;;;19.60;10.23;;;;;;;9.69;100.00;99162.09;5115350;28;20063;-74
2021/11/04 01:20:10;;;;;;;15.82;9.27;;;;;;;9.81;100.00;99158.53;5115935;28;20430;-74
2021/11/04 01:22:38;;;;;;;17.83;10.70;;;;;;;9.99;100.00;99149.16;5115262;28;20130;-73
2021/11/04 01:25:07;;;;;;;16.73;10.10;;;;;;;10.06;100.00;99144.25;5115907;28;20032;-72
2021/11/04 01:27:39;;;;;;;16.52;10.23;;;;;;;10.06;100.00;99125.59;5115198;28;20043;-73
2021/11/04 01:30:09;;;;;;;17.88;11.25;;;;;;;10.16;100.00;99104.41;5115907;28;20066;-73
2021/11/04 01:32:38;;;;;;;18.45;10.90;;;;;;;9.86;100.00;99103.13;5115429;28;20130;-74
2021/11/04 01:35:08;;;;;;;19.60;11.05;;;;;;;9.85;100.00;99100.56;5115630;28;20040;-74
2021/11/04 01:37:37;;;;;;;22.10;12.13;;;;;;;9.64;100.00;99113.66;5115317;28;20064;-74
2021/11/04 01:40:07;;;;;;;16.98;10.20;;;;;;;9.65;100.00;99118.00;5115589;28;20401;-72
2021/11/04 01:42:37;;;;;;;17.50;9.48;;;;;;;9.85;100.00;99111.22;5097223;28;20065;-73
2021/11/04 01:45:06;;;;;;;18.30;9.02;;;;;;;10.03;100.00;99091.16;5115251;28;20109;-72
2021/11/04 01:47:34;;;;;;;14.05;8.48;;;;;;;10.17;100.00;99082.13;5115245;28;20046;-73
2021/11/04 01:50:03;;;;;;;16.65;8.75;;;;;;;10.20;100.00;99080.06;5115442;28;20044;-72
2021/11/04 01:52:31;;;;;;;15.32;8.13;;;;;;;10.23;100.00;99101.22;5114983;28;20050;-73
2021/11/04 01:54:59;;;;;;;16.83;8.55;;;;;;;10.34;100.00;99112.84;5115464;28;20043;-73
2021/11/04 01:57:27;;;;;;;15.63;7.75;;;;;;;10.38;100.00;99135.63;5115215;28;20536;-73
2021/11/04 02:00:01;;;;;;;15.13;7.97;;;;;;;10.34;100.00;99150.16;5115059;28;20085;-74
2021/11/04 02:02:34;;;;;;;15.00;8.00;;;;;;;10.36;100.00;99162.41;5114793;28;20085;-78
2021/11/04 02:05:06;;;;;;;15.20;8.27;;;;;;;10.34;100.00;99160.84;5096967;28;20526;-74
2021/11/04 02:07:42;;;;;;;15.50;7.97;;;;;;;10.39;100.00;99171.97;5114404;28;20046;-73
2021/11/04 02:10:15;;;;;;;15.30;7.85;;;;;;;10.52;100.00;99164.75;5115135;28;20148;-74
2021/11/04 02:12:47;;;;;;;;;;;;;;;10.53;100.00;99166.44;5114745;28;20039;-74
2021/11/04 02:15:16;;;;;;;13.55;7.60;;;;;;;10.67;100.00;99162.69;5114884;28;19924;-74
2021/11/04 02:17:47;;;;;;;15.00;7.47;;;;;;;10.62;100.00;99162.22;5114313;28;20055;-74
2021/11/04 02:20:23;;;;;;;12.68;7.88;;;;;;;10.63;100.00;99145.25;5114887;28;20096;-72
2021/11/04 02:23:00;;;;;;;15.13;7.60;;;;;;;10.64;100.00;99145.13;5114410;28;20401;-74
2021/11/04 02:25:32;;;;;;;15.23;8.55;;;;;;;10.64;100.00;99147.81;5114471;28;20042;-74
2021/11/04 02:28:02;;;;;;;14.73;8.05;;;;;;;10.53;100.00;99139.78;5114696;28;20476;-71
2021/11/04 02:30:32;;;;;;;14.15;7.45;;;;;;;10.61;100.00;99134.69;5114660;28;20126;-71
2021/11/04 02:33:01;;;;;;;17.42;8.27;;;;;;;10.52;100.00;99124.75;5114716;28;20043;-73
2021/11/04 02:35:30;;;;;;;13.20;7.63;;;;;;;10.54;100.00;99112.16;5114195;28;20495;-73
2021/11/04 02:38:02;;;;;;;13.65;7.82;;;;;;;10.49;100.00;99108.97;5114189;28;20139;-73
2021/11/04 02:40:31;;;;;;;14.40;8.25;;;;;;;10.51;100.00;99097.22;5114443;28;20512;-73
2021/11/04 02:43:02;;;;;;;13.13;7.00;;;;;;;10.57;100.00;99087.91;5114306;28;20043;-73
2021/11/04 02:45:30;;;;;;;16.23;8.30;;;;;;;10.49;100.00;99091.16;5114042;28;20481;-73
2021/11/04 02:47:59;;;;;;;14.25;7.78;;;;;;;10.41;100.00;99114.91;5113919;28;20472;-74
2021/11/04 02:50:28;;;;;;;15.95;7.45;;;;;;;10.44;100.00;99108.50;5114174;28;20043;-73
2021/11/04 02:52:57;;;;;;;15.13;7.10;;;;;;;10.51;100.00;99112.38;5113441;28;20484;-73
2021/11/04 02:55:34;;;;;;;12.70;7.40;;;;;;;10.50;100.00;99108.00;5114153;28;20043;-73
2021/11/04 02:58:07;;;;;;;15.20;7.22;;;;;;;10.59;100.00;99108.13;5114160;28;20120;-74
2021/11/04 03:00:38;;;;;;;13.75;7.13;;;;;;;10.60;100.00;99095.66;5113453;28;20043;-75
2021/11/04 03:03:06;;;;;;;12.77;7.15;;;;;;;10.61;100.00;99092.03;5113849;28;20126;-74
2021/11/04 03:05:35;;;;;;;13.20;7.20;;;;;;;10.60;100.00;99091.16;5113648;28;20124;-78
2021/11/04 03:08:04;;;;;;;12.52;7.10;;;;;;;10.64;100.00;99089.13;5095870;28;20085;-74
2021/11/04 03:10:34;;;;;;;12.63;7.15;;;;;;;10.54;100.00;99089.00;5113904;28;20047;-73
2021/11/04 03:13:03;;;;;;;12.52;7.40;;;;;;;10.51;100.00;99099.03;5114131;28;20046;-73
2021/11/04 03:15:36;;;;;;;12.98;6.95;;;;;;;10.50;100.00;99094.69;5113829;28;20472;-73
2021/11/04 03:18:05;;;;;;;12.73;6.90;;;;;;;10.58;100.00;99089.59;5113572;28;20048;-73
2021/11/04 03:20:34;;;;;;;13.60;7.25;;;;;;;10.62;100.00;99093.75;5113459;28;20044;-75
2021/11/04 03:23:04;;;;;;;12.40;6.68;;;;;;;10.79;100.00;99076.38;5113712;28;20043;-75
2021/11/04 03:25:35;;;;;;;11.02;6.22;;;;;;;10.78;100.00;99088.03;5095388;28;20396;-75
2021/11/04 03:28:04;;;;;;;16.30;7.47;;;;;;;10.60;100.00;99090.31;5113815;28;20047;-76
2021/11/04 03:30:37;;;;;;;13.10;7.18;;;;;;;10.54;100.00;99085.50;5113722;28;20388;-75
2021/11/04 03:33:09;;;;;;;12.07;6.57;;;;;;;10.75;100.00;99072.28;5113789;28;20044;-75
2021/11/04 03:35:39;;;;;;;14.77;7.32;;;;;;;10.56;100.00;99064.88;5113289;28;20044;-79
2021/11/04 03:38:12;;;;;;;14.02;7.47;;;;;;;10.50;100.00;99065.34;5113595;28;20032;-75
2021/11/04 03:40:43;;;;;;;12.97;7.20;;;;;;;10.40;100.00;99051.06;5113280;28;20044;-75
2021/11/04 03:43:11;;;;;;;15.43;7.97;;;;;;;10.45;100.00;99056.88;5113583;28;20040;-75
2021/11/04 03:45:40;;;;;;;15.23;8.05;;;;;;;10.48;100.00;99052.16;5113169;28;20049;-76
2021/11/04 03:48:09;;;;;;;13.23;7.60;;;;;;;10.49;100.00;99047.66;5113422;28;20046;-75
2021/11/04 03:50:38;;;;;;;13.38;7.07;;;;;;;10.44;100.00;99047.19;5113341;28;20044;-78
2021/11/04 03:53:07;;;;;;;13.93;7.75;;;;;;;10.31;100.00;99053.47;5113090;28;20044;-74
2021/11/04 03:55:36;;;;;;;16.15;7.32;;;;;;;10.38;100.00;99050.31;5113079;28;20052;-74
2021/11/04 03:58:05;;;;;;;13.80;7.13;;;;;;;10.40;100.00;99043.06;5113215;28;20044;-74
2021/11/04 04:00:34;;;;;;;11.80;7.47;;;;;;;10.40;100.00;99037.72;5095344;28;20051;-74
2021/11/04 04:03:02;;;;;;;16.17;7.30;;;;;;;10.26;100.00;99046.81;5113057;28;20070;-74
2021/11/04 04:05:32;;;;;;;17.25;8.38;;;;;;;10.25;100.00;99056.63;5113188;28;20047;-74
2021/11/04 04:08:01;;;;;;;16.13;8.02;;;;;;;10.19;100.00;99062.38;5113205;28;20047;-74
2021/11/04 04:10:32;;;;;;;16.92;8.32;;;;;;;10.18;100.00;99073.16;5113255;28;20126;-75
2021/11/04 04:13:01;;;;;;;16.15;8.32;;;;;;;10.21;100.00;99076.44;5112954;28;20122;-75
2021/11/04 04:15:31;;;;;;;14.88;7.57;;;;;;;10.15;100.00;99079.59;5112966;28;20054;-75
2021/11/04 04:17:59;;;;;;;14.75;8.60;;;;;;;10.24;100.00;99070.91;5112734;28;20101;-75
2021/11/04 04:20:27;;;;;;;15.10;8.10;;;;;;;10.25;100.00;99069.94;5095093;28;20048;-75
2021/11/04 04:22:56;;;;;;;14.90;7.57;;;;;;;10.25;100.00;99077.94;5112911;28;20043;-76
2021/11/04 04:25:24;;;;;;;13.57;8.32;;;;;;;10.30;100.00;99069.56;5112850;28;20416;-75
2021/11/04 04:27:52;;;;;;;14.07;8.35;;;;;;;10.21;100.00;99068.44;5112665;28;20051;-75
2021/11/04 04:30:20;;;;;;;16.83;8.98;;;;;;;10.15;100.00;99063.59;5113207;28;20488;-74
2021/11/04 04:32:53;;;;;;;17.92;9.07;;;;;;;10.30;100.00;99043.78;5112862;28;20071;-74
2021/11/04 04:35:21;;;;;;;18.23;8.95;;;;;;;10.17;100.00;99042.16;5113097;28;20043;-74
2021/11/04 04:37:49;;;;;;;16.48;9.73;;;;;;;10.12;100.00;99039.84;5112793;28;20046;-74
2021/11/04 04:40:17;;;;;;;14.35;8.63;;;;;;;10.08;100.00;99026.88;5116707;28;20042;-75
2021/11/04 04:42:48;;;;;;;18.88;8.52;;;;;;;10.24;100.00;99017.63;5116127;28;20066;-75
2021/11/04 04:45:16;;;;;;;15.45;8.32;;;;;;;10.22;100.00;99013.34;5116498;28;20130;-74
2021/11/04 04:47:46;;;;;;;17.95;8.57;;;;;;;10.15;100.00;99018.31;5116337;28;20050;-76
2021/11/04 04:50:17;;;;;;;15.75;8.98;;;;;;;10.04;100.00;99000.50;5116539;28;20040;-73
2021/11/04 04:52:47;;;;;;;17.42;8.60;;;;;;;10.03;100.00;98995.25;5116285;28;20082;-73
2021/11/04 04:55:15;;;;;;;16.77;8.90;;;;;;;10.09;100.00;98976.13;5116486;28;20039;-73
2021/11/04 04:57:43;;;;;;;16.40;9.25;;;;;;;10.02;100.00;98972.25;5116019;28;20067;-74
2021/11/04 05:00:14;;;;;;;17.55;8.70;;;;;;;9.98;100.00;98963.66;5116341;28;20533;-72
2021/11/04 05:02:44;;;;;;;16.17;8.82;;;;;;;9.91;100.00;98973.09;5116075;28;20048;-77
2021/11/04 05:05:15;;;;;;;19.40;10.20;;;;;;;9.83;100.00;99006.59;5116698;28;20393;-74
2021/11/04 05:07:44;;;;;;;16.73;9.15;;;;;;;10.02;100.00;99026.38;5116065;28;20040;-75
2021/11/04 05:10:13;;;;;;;19.52;9.73;;;;;;;9.89;100.00;99078.06;5116254;28;20046;-74
2021/11/04 05:12:44;;;;;;;18.80;9.80;;;;;;;9.86;100.00;99120.91;5116053;28;20123;-74
2021/11/04 05:15:13;;;;;;;22.48;11.02;;;;;;;9.82;100.00;99122.94;5116089;28;20040;-73
2021/11/04 05:17:43;;;;;;;21.73;9.88;;;;;;;9.83;100.00;99129.13;5115488;28;20048;-72
2021/11/04 05:20:11;;;;;;;17.95;10.30;;;;;;;9.81;100.00;99133.72;5116092;28;20046;-72
2021/11/04 05:22:41;;;;;;;17.17;10.50;;;;;;;9.83;100.00;99137.09;5115261;28;20039;-71
2021/11/04 05:25:09;;;;;;;21.30;10.25;;;;;;;9.97;100.00;99139.59;5115497;28;20047;-72
2021/11/04 05:27:38;;;;;;;18.30;10.10;;;;;;;9.99;100.00;99140.31;5115748;28;20171;-72
2021/11/04 05:30:07;;;;;;;20.85;10.13;;;;;;;10.01;100.00;99146.38;5115129;28;20385;-73
2021/11/04 05:32:36;;;;;;;20.17;10.48;;;;;;;10.01;100.00;99138.41;5115791;28;20142;-72
2021/11/04 05:35:05;;;;;;;19.55;10.00;;;;;;;10.13;100.00;99137.44;5115330;28;20925;-72
2021/11/04 05:37:33;;;;;;;20.15;10.25;;;;;;;10.11;100.00;99128.72;5115613;28;20032;-74
2021/11/04 05:40:03;;;;;;;15.77;9.57;;;;;;;10.18;100.00;99131.78;5115178;28;20054;-73
2021/11/04 05:42:32;;;;;;;17.15;10.02;;;;;;;10.15;100.00;99124.88;5115425;28;20036;-74
2021/11/04 05:45:00;;;;;;;17.30;9.63;;;;;;;10.21;100.00;99124.41;5114805;28;20088;-74
2021/11/04 05:47:29;;;;;;;18.65;10.32;;;;;;;10.24;100.00;99113.56;5115104;28;20075;-72
2021/11/04 05:49:58;;;;;;;17.83;10.35;;;;;;;10.10;100.00;99100.41;5114675;28;20044;-72
2021/11/04 05:52:26;;;;;;;23.77;12.02;;;;;;;10.06;100.00;99088.28;5115274;28;20043;-72
2021/11/04 05:54:56;;;;;;;22.52;12.18;;;;;;;10.00;100.00;99078.09;5114802;28;20089;-72
2021/11/04 05:57:26;;;;;;;21.15;12.48;;;;;;;9.95;100.00;99114.91;5114829;28;20043;-72
2021/11/04 05:59:55;;;;;;;20.90;10.77;;;;;;;9.97;100.00;99119.13;5114592;28;20108;-72
2021/11/04 06:02:24;;;;;;;20.42;11.57;;;;;;;10.03;100.00;99115.13;5114870;28;20097;-72
2021/11/04 06:04:53;;;;;;;23.08;12.20;;;;;;;10.08;100.00;99088.16;5114445;28;20086;-72
2021/11/04 06:07:21;;;;;;;23.98;12.10;;;;;;;10.08;100.00;99045.53;5114675;28;20093;-73
2021/11/04 06:09:50;;;;;;;18.92;10.40;;;;;;;10.10;100.00;99003.63;5114491;28;20062;-74
2021/11/04 06:12:18;;;;;;;20.40;11.57;;;;;;;9.96;100.00;98915.00;5114595;28;20040;-74
2021/11/04 06:14:48;;;;;;;21.98;10.90;;;;;;;9.85;100.00;98852.91;5114740;28;20039;-71
2021/11/04 06:17:16;;;;;;;23.10;12.00;;;;;;;9.89;100.00;98953.72;5114188;28;20047;-74
2021/11/04 06:19:44;;;;;;;23.30;12.48;;;;;;;9.94;100.00;98980.00;5114340;28;20039;-75
2021/11/04 06:22:12;;;;;;;26.13;12.60;;;;;;;10.01;100.00;98973.22;5113974;28;20036;-71
2021/11/04 06:24:41;;;;;;;24.10;13.18;;;;;;;10.10;100.00;98980.50;5114325;28;20053;-72
2021/11/04 06:27:11;;;;;;;25.42;13.48;;;;;;;10.17;100.00;98996.88;5114202;28;20047;-72
2021/11/04 06:29:40;;;;;;;27.25;13.18;;;;;;;10.24;100.00;98979.47;5114474;28;20044;-71
2021/11/04 06:32:09;;;;;;;24.50;13.50;;;;;;;10.36;100.00;98977.63;5114023;28;20438;-72
2021/11/04 06:34:38;;;;;;;24.88;12.23;;;;;;;10.50;100.00;98972.03;5114309;28;20130;-71
2021/11/04 06:37:06;;;;;;;22.50;12.48;;;;;;;10.54;100.00;98981.50;5113719;28;20055;-72
2021/11/04 06:39:35;;;;;;;20.17;12.15;;;;;;;10.60;100.00;98991.66;5114235;28;20055;-72
2021/11/04 06:42:03;;;;;;;22.02;12.23;;;;;;;10.54;100.00;98994.84;5113522;28;20048;-75
2021/11/04 06:44:31;;;;;;;22.60;11.93;;;;;;;10.55;100.00;99009.88;5114256;28;20064;-72
2021/11/04 06:47:02;;;;;;;23.75;12.70;;;;;;;10.55;100.00;98999.19;5113643;28;20050;-72
2021/11/04 06:49:36;;;;;;;23.88;13.23;;;;;;;10.52;100.00;98994.97;5114019;28;20035;-71
2021/11/04 06:52:10;;;;;;;23.00;13.20;;;;;;;10.61;100.00;98993.34;5113635;28;20071;-71
2021/11/04 06:54:41;;;;;;;20.92;12.32;;;;;;;10.75;100.00;98979.78;5113489;28;20047;-70
2021/11/04 06:57:17;;;;;;;21.23;12.18;;;;;;;10.78;100.00;98989.34;5113649;28;20369;-71
2021/11/04 06:59:48;;;;;;;20.65;12.27;;;;;;;10.73;100.00;98991.53;5113336;28;20442;-71
2021/11/04 07:02:32;;;;;;;21.30;12.27;;;;;;;10.81;100.00;98989.97;5112824;28;20043;-71
2021/11/04 07:05:02;;;;;;;;;;;;;;;10.75;100.00;98990.44;5113895;28;20047;-71
2021/11/04 07:07:38;;;;;;;19.60;11.25;;;;;;;10.77;100.00;98983.16;5113630;28;20021;-71
2021/11/04 07:10:07;;;;;;;20.98;11.95;;;;;;;10.82;100.00;98980.97;5113387;28;20120;-70
2021/11/04 07:12:36;;;;;;;24.02;13.38;;;;;;;10.88;100.00;98982.28;5113272;28;20052;-71
2021/11/04 07:15:05;;;;;;;22.42;13.30;;;;;;;11.03;100.00;98973.03;5112687;28;20048;-70
2021/11/04 07:17:39;;;;;;;20.30;11.85;;;;;;;11.25;100.00;98977.44;5112782;28;20096;-71
2021/11/04 07:20:10;;;;;;;22.33;12.30;;;;;;;11.33;100.00;98972.31;5113251;28;20040;-71
2021/11/04 07:22:44;;;;;;;19.48;11.18;;;;;;;11.39;100.00;98978.97;5113517;28;20043;-70
2021/11/04 07:25:14;;;;;;;17.40;10.45;;;;;;;11.39;100.00;99008.34;5112860;28;20113;-70
2021/11/04 07:27:58;;;;;;;16.52;10.68;;;;;;;11.39;100.00;98995.00;5113664;28;20039;-71
2021/11/04 07:30:28;;;;;;;17.23;10.50;;;;;;;11.38;100.00;99010.13;5106282;28;20036;-75
2021/11/04 07:32:59;;;;;;;18.75;11.50;;;;;;;11.33;100.00;99007.03;5111966;28;20070;-74
2021/11/04 07:35:31;;;;;;;20.45;11.50;;;;;;;11.38;100.00;99003.94;5112423;28;20058;-72
2021/11/04 07:38:01;;;;;;;17.20;10.70;;;;;;;11.37;100.00;99003.09;5112091;28;20048;-72
2021/11/04 07:40:31;;;;;;;19.17;11.60;;;;;;;11.38;100.00;98998.63;5109360;28;20118;-72
2021/11/04 07:43:00;;;;;;;20.95;11.52;;;;;;;11.45;100.00;98995.31;5112503;28;20050;-68
2021/11/04 07:45:30;;;;;;;20.27;11.73;;;;;;;11.48;100.00;98994.19;5114532;28;20501;-71
2021/11/04 07:47:59;;;;;;;21.80;12.20;;;;;;;11.56;100.00;98988.22;5112483;28;20050;-73
2021/11/04 07:50:30;;;;;;;18.30;10.93;;;;;;;11.72;100.00;99000.16;5111831;28;20062;-72
2021/11/04 07:52:59;;;;;;;20.08;11.70;;;;;;;11.74;100.00;99016.06;5109737;28;20469;-75
2021/11/04 07:55:27;;;;;;;20.85;11.80;;;;;;;11.71;100.00;99019.00;5093427;28;20446;-68
2021/11/04 07:57:56;;;;;;;20.73;12.85;;;;;;;11.69;100.00;99018.28;5110258;28;20051;-69
2021/11/04 08:00:29;;;;;;;17.85;11.50;;;;;;;11.73;100.00;99020.56;5111893;28;20048;-70
2021/11/04 08:02:57;;;;;;;17.00;11.00;;;;;;;11.81;100.00;99027.09;5109747;28;20400;-71
2021/11/04 08:05:27;;;;;;;20.70;12.27;;;;;;;11.77;100.00;99015.78;5111965;28;20067;-73
2021/11/04 08:07:57;;;;;;;17.23;10.77;;;;;;;11.83;100.00;99025.16;5111806;28;20063;-73
2021/11/04 08:10:29;;;;;;;19.40;11.10;;;;;;;11.87;100.00;99019.44;5108822;28;20097;-71
2021/11/04 08:13:03;;;;;;;20.75;11.25;;;;;;;11.99;100.00;99020.22;5094352;28;20052;-71
2021/11/04 08:15:31;;;;;;;18.05;11.02;;;;;;;12.07;100.00;99035.59;5113727;28;20043;-72
2021/11/04 08:18:01;;;;;;;18.40;9.85;;;;;;;11.97;100.00;99039.06;5114979;28;20048;-72
2021/11/04 08:20:30;;;;;;;17.20;10.45;;;;;;;11.89;100.00;99036.19;5115633;28;20073;-70
2021/11/04 08:23:01;;;;;;;17.83;10.65;;;;;;;11.87;100.00;99048.81;5115982;28;20114;-71
2021/11/04 08:25:30;;;;;;;17.70;10.80;;;;;;;11.86;100.00;99068.47;5115451;28;20047;-72
2021/11/04 08:27:58;;;;;;;18.00;11.18;;;;;;;11.85;100.00;99087.31;5115414;28;20051;-70
2021/11/04 08:30:29;;;;;;;21.20;11.82;;;;;;;11.87;100.00;99122.75;5115553;28;20573;-71
2021/11/04 08:32:58;;;;;;;20.50;11.27;;;;;;;11.88;100.00;99058.53;5116073;28;20466;-72
2021/11/04 08:35:26;;;;;;;24.80;11.45;;;;;;;11.99;100.00;99038.91;5115899;28;20448;-72
2021/11/04 08:37:56;;;;;;;20.48;11.25;;;;;;;11.95;100.00;99000.91;5116150;28;20369;-72
2021/11/04 08:40:26;;;;;;;21.80;12.73;;;;;;;11.91;100.00;99012.00;5115442;28;20071;-71
2021/11/04 08:42:54;;;;;;;22.02;12.40;;;;;;;11.91;100.00;99033.38;5115977;28;20047;-73
2021/11/04 08:45:23;;;;;;;23.42;12.88;;;;;;;11.80;100.00;99047.63;5115548;28;20050;-71
2021/11/04 08:47:51;;;;;;;19.58;11.52;;;;;;;11.76;100.00;99065.69;5116133;28;20048;-71
2021/11/04 08:50:20;;;;;;;21.63;12.82;;;;;;;11.76;100.00;99064.84;5115336;28;20139;-72
2021/11/04 08:52:52;;;;;;;25.77;14.15;;;;;;;11.82;100.00;99045.69;5115682;28;20039;-71
2021/11/04 08:55:21;;;;;;;21.05;12.73;;;;;;;11.92;100.00;99030.56;5115383;28;20048;-76
2021/11/04 08:57:52;;;;;;;20.17;12.65;;;;;;;11.91;100.00;99039.56;5115681;28;20032;-74
2021/11/04 09:00:21;;;;;;;23.77;14.00;;;;;;;11.81;100.00;99030.63;5114588;28;20036;-73
2021/11/04 09:02:50;;;;;;;25.42;14.35;;;;;;;11.86;100.00;99036.41;5115757;28;20046;-71
2021/11/04 09:05:18;;;;;;;22.65;14.27;;;;;;;11.94;100.00;99033.09;5115208;28;20040;-70
2021/11/04 09:07:47;;;;;;;22.75;14.30;;;;;;;11.97;100.00;99055.09;5115752;28;20493;-71
2021/11/04 09:10:18;;;;;;;26.13;15.43;;;;;;;11.89;100.00;99064.72;5114828;28;20047;-70
2021/11/04 09:12:47;;;;;;;25.90;15.18;;;;;;;11.85;100.00;99084.63;5115402;28;20413;-69
2021/11/04 09:15:17;;;;;;;27.33;15.32;;;;;;;11.79;100.00;99107.38;5114912;28;20035;-69
2021/11/04 09:17:45;;;;;;;24.42;14.02;;;;;;;11.80;100.00;99102.91;5115263;28;20078;-70
2021/11/04 09:20:16;;;;;;;24.75;14.23;;;;;;;11.81;100.00;99110.78;5118116;28;20059;-69
2021/11/04 09:22:46;;;;;;;26.00;13.90;;;;;;;11.75;100.00;99119.25;5115191;28;20481;-69
2021/11/04 09:25:17;;;;;;;22.10;13.77;;;;;;;11.73;100.00;99143.44;5114037;28;20038;-69
2021/11/04 09:27:46;;;;;;;21.45;13.13;;;;;;;11.75;100.00;99154.00;5115044;28;20043;-69
2021/11/04 09:30:16;;;;;;;24.05;14.27;;;;;;;11.82;100.00;99165.91;5114442;28;20047;-71
2021/11/04 09:32:45;;;;;;;20.63;13.55;;;;;;;11.87;100.00;99179.75;5115245;28;20097;-70
2021/11/04 09:35:14;;;;;;;21.02;13.02;;;;;;;11.81;100.00;99158.88;5114849;28;20438;-72
2021/11/04 09:37:43;;;;;;;17.73;12.85;;;;;;;11.82;100.00;99152.53;5115080;28;20044;-69
2021/11/04 09:40:13;;;;;;;24.40;13.73;;;;;;;11.80;100.00;99148.31;5114338;28;20079;-72
2021/11/04 09:42:42;;;;;;;23.48;13.77;;;;;;;11.82;100.00;99147.19;5114831;28;20047;-68
2021/11/04 09:45:10;;;;;;;23.13;13.98;;;;;;;11.95;100.00;99136.34;5114329;28;20036;-69
2021/11/04 09:47:41;;;;;;;27.83;15.40;;;;;;;12.12;100.00;99117.06;5113073;28;20078;-68
2021/11/04 09:50:11;;;;;;;20.73;13.00;;;;;;;12.26;100.00;99145.31;5113247;28;20119;-72
2021/11/04 09:52:42;;;;;;;22.27;13.50;;;;;;;12.23;100.00;99159.78;5110343;28;20184;-69
2021/11/04 09:55:17;;;;;;;24.10;15.00;;;;;;;12.24;100.00;99148.09;5112606;28;20131;-70
2021/11/04 09:57:49;;;;;;;23.85;14.43;;;;;;;12.45;100.00;99144.56;5113373;28;20036;-69
2021/11/04 10:00:18;;;;;;;22.92;14.27;;;;;;;12.50;100.00;99142.38;5110066;28;20040;-70
2021/11/04 10:03:00;;;;;;;23.52;14.60;;;;;;;12.61;100.00;99131.59;5113633;28;20046;-69
2021/11/04 10:05:28;;;;;;;22.58;14.93;;;;;;;12.72;100.00;99146.72;5112638;28;20044;-69
2021/11/04 10:07:59;;;;;;;21.77;14.68;;;;;;;12.69;100.00;99163.03;5108511;28;20561;-70
2021/11/04 10:10:27;;;;;;;28.52;15.57;;;;;;;12.72;100.00;99160.09;5104925;28;20031;-69
2021/11/04 10:12:57;;;;;;;25.00;14.70;;;;;;;12.83;100.00;99141.28;5108039;28;20477;-70
2021/11/04 10:15:26;;;;;;;24.90;15.75;;;;;;;12.78;100.00;99154.22;5092511;28;20043;-72
2021/11/04 10:18:16;;;;;;;24.67;16.23;;;;;;;12.75;100.00;99128.59;5113940;28;20052;-70
2021/11/04 10:20:53;;;;;;;25.20;15.82;;;;;;;12.71;100.00;99139.69;5112673;28;20392;-69
2021/11/04 10:23:22;;;;;;;22.33;15.60;;;;;;;12.63;100.00;99148.34;5113778;28;20039;-72
2021/11/04 10:25:51;;;;;;;26.25;15.85;;;;;;;12.49;100.00;99164.75;5113160;28;20043;-70
2021/11/04 10:28:26;;;;;;;29.83;17.33;;;;;;;12.51;100.00;99162.78;5113195;28;20495;-71
2021/11/04 10:30:54;;;;;;;26.88;16.35;;;;;;;12.58;100.00;99162.13;5112426;28;20044;-71
2021/11/04 10:33:27;;;;;;;25.42;16.83;;;;;;;12.67;100.00;99151.63;5111867;28;20050;-73
2021/11/04 10:35:58;;;;;;;25.30;16.47;;;;;;;12.70;100.00;99137.97;5110702;28;20046;-70
2021/11/04 10:38:30;;;;;;;27.45;16.42;;;;;;;12.93;100.00;99152.03;5112520;28;20268;-69
2021/11/04 10:41:04;;;;;;;26.92;17.35;;;;;;;13.03;100.00;99164.50;5093041;28;20040;-69
2021/11/04 10:43:32;;;;;;;33.22;17.58;;;;;;;13.09;100.00;99171.97;5093195;28;20094;-70
2021/11/04 10:46:03;;;;;;;27.90;17.05;;;;;;;13.15;100.00;99171.44;5074717;28;20052;-71
2021/11/04 10:48:34;;;;;;;31.08;17.05;;;;;;;13.24;100.00;99167.16;5106318;28;20075;-71
2021/11/04 10:51:03;;;;;;;26.90;17.30;;;;;;;13.32;100.00;99175.38;5110551;28;20494;-71
2021/11/04 10:53:32;;;;;;;24.55;17.42;;;;;;;13.38;100.00;99184.66;5112255;28;20111;-71
2021/11/04 10:56:18;;;;;;;23.65;15.05;;;;;;;13.50;100.00;99180.03;5112725;28;20059;-70
2021/11/04 10:58:58;;;;;;;21.08;15.18;;;;;;;13.57;100.00;99182.03;5110083;28;20031;-70
2021/11/04 11:01:45;;;;;;;22.45;15.05;;;;;;;13.60;100.00;99192.47;5112352;28;20039;-71
2021/11/04 11:04:20;;;;;;;24.08;13.80;;;;;;;13.61;100.00;99199.56;5112571;28;20036;-70
2021/11/04 11:06:50;;;;;;;19.15;12.80;;;;;;;13.68;100.00;99200.69;5112167;28;20059;-73
2021/11/04 11:09:21;;;;;;;19.30;12.15;;;;;;;13.72;100.00;99202.13;5093294;28;20059;-74
2021/11/04 11:11:52;;;;;;;16.77;11.35;;;;;;;13.73;100.00;99198.44;5101639;28;20120;-72
2021/11/04 11:14:22;;;;;;;19.23;10.82;;;;;;;13.79;100.00;99202.41;5112758;28;20051;-71
2021/11/04 11:16:53;;;;;;;15.60;9.82;;;;;;;13.82;100.00;99209.34;5112839;28;20051;-71
2021/11/04 11:19:25;;;;;;;16.85;10.32;;;;;;;13.83;100.00;99213.72;5112529;28;20066;-72
2021/11/04 11:21:54;;;;;;;19.98;9.98;;;;;;;13.88;100.00;99219.47;5110697;28;20043;-72
2021/11/04 11:24:26;;;;;;;17.17;10.30;;;;;;;13.90;100.00;99212.19;5111903;28;20043;-71
2021/11/04 11:26:57;;;;;;;20.08;11.27;;;;;;;14.07;100.00;99210.63;5111287;28;20116;-70